Racecast

Kristian Carroll

Pine Creek (CO) · 12 · COLORADO SPRINGS METROCO D5A4A · Compare head to head

Athlete rating 120.1 2015 TF season
Best race 121.6 TF
Races 41
Seasons 5 2011 — 2015

RankedNation #15867·CO #457·CO D5A #283·COLORADO SPRINGS METRO #33·Team #8 ?

Speed rating — all races

Cross Country

XC speed rating

2014 XC 110.5

Pine Creek (CO) · Grade 12

Date Meet Event Result Place Rating Difficulty PR/SR Flags
2014-10-16 Monument Valley Park 5000m 19:24 95th · 5th on team 109.8 +0.031 CSR
2014-09-12 Heritage High School 5000m 18:13 113th · 3rd on team 111.2 -0.001 ★PR ★CR SR CSR RSR

2013 XC 110.9

Pine Creek (CO) · Grade 11

Date Meet Event Result Place Rating Difficulty PR/SR Flags
2013-10-26 Norris Penrose Event Center 5000m 20:26.1 183rd · 6th on team 107.5 +0.067 ★CR CSR
2013-10-17 Monument Valley Park 5000m 18:36 83rd · 6th on team 113.0 +0.031 ★CR SR CSR
2013-09-28 Rim Rock Farm 5000m 19:10.3 303rd · 5th on team 108.6 +0.023 CSR
2013-08-30 Julia deKoevend Park 5000m 19:00 141st · 5th on team 114.4 +0.054 ★CR SR CSR RSR

2012 XC 112.7

Pine Creek (CO) · Grade 10

Date Meet Event Result Place Rating Difficulty PR/SR Flags
2012-10-18 Fountain-Fort Carson High School 5000m 18:21 88th · 8th on team 116.0 +0.040 PR ★CR R SR CSR RSR
2012-10-11 Fountain-Fort Carson High School 5000m 20:00 44th · 9th on team 107.8 +0.040 CR CSR
2012-09-29 Fountain Creek Regional 5000m 18:28.6 96th · 7th on team 113.7 +0.016 CSR
2012-09-22 Rim Rock Farm 5000m 18:21.6 186th · 6th on team 114.4 +0.023 PR ★CR SR CSR RSR
2012-09-14 Heritage High School 5000m 18:24 33rd · 1st on team 112.9 -0.001 PR CR SR CSR
2012-09-08 Lyons Middle/High School 5000m 19:34 158th · 8th on team 110.9 +0.046 ★CR CSR
2012-08-31 Julia deKoevend Park 5000m 19:16 79th · 6th on team 113.0 +0.054 CR SR CSR RSR

2011 XC 112.0

Pine Creek (CO) · Grade 9

Date Meet Event Result Place Rating Difficulty PR/SR Flags
2011-11-19 Toka Sticks Golf Course 5000m 18:39.2 306th · 8th on team 112.6 +0.009 ★CR CSR
2011-10-21 Monument Valley Park 5000m 18:48 24th · 1st on team 114.3 +0.031 CR CSR
2011-10-01 Fountain Creek Regional 5000m 18:28.6 96th · 7th on team 114.5 +0.016 PR CR R SR CSR RSR
2011-09-24 Rim Rock Farm 5000m 18:59.5 29th · 1st on team 111.0 +0.023 PR CR R SR CSR RSR
2011-09-16 Heritage High School 5000m 19:19 88th · 4th on team 107.7 -0.001 PR CR R SR CSR RSR

Track & Field

TF speed rating

2015 TF 116.4

Pine Creek (CO) · Grade 12

Date Meet Event Result Place Rating Difficulty PR/SR Flags
2015-05-07 Colorado Springs Metro League Championsh 800m 2:12.78 17th · 2nd on team 117.2 -0.004
2015-05-07 4A-5A Metro League 800m 2:12.78 17th · 2nd on team 117.2 -0.004
2015-05-07 4A-5A Metro League 1600m 5:19.83 27th · 4th on team 109.8 -0.004
2015-05-07 Colorado Springs Metro League Championsh 1600m 5:19.83 27th · 4th on team 109.8 -0.004
2015-05-01 Pueblo Twilight 800m 2:07.03 29th · 2nd on team 121.6 -0.011 ★PR ★R SR RSR
2015-05-01 Pueblo Twilight 1600m 5:01.8 51st · 2nd on team 115.7 -0.011 ★PR SR
2015-04-25 Liberty Bell Invite 800m 2:07.39 36th · 2nd on team 120.6 -0.015 PR R SR RSR
2015-04-11 John Tate Challenge Cup 800m 2:08.97 6th · 1st on team 119.5 -0.011
2015-04-04 Mountain Range Mustang Invitational 800m 2:08.72 28th · 2nd on team 120.2 -0.011 PR R SR RSR
2015-03-28 Altitude Running Invitational 800m 2:14.24 13th · 1st on team 115.5 -0.009 SR RSR
2015-03-28 Altitude Running Invitational 400m 56.78 12th · 1st on team -0.009 SR
2015-03-21 Pueblo Centennial Invitational 800m 2:14.48 16th · 1st on team 114.8 -0.011 SR RSR
2015-03-21 Centennial Invitational 800m 2:14.48 16th · 1st on team 114.8 -0.011
2015-03-21 Centennial Invitational 400m 56.79 22nd · 2nd on team -0.011 SR
2015-03-21 Pueblo Centennial Invitational 400m 56.79 22nd · 2nd on team -0.011

2013 TF 119.0

Pine Creek (CO) · Grade 10

Date Meet Event Result Place Rating Difficulty PR/SR Flags
2013-04-26 Liberty Bell Invitational 800m 2:09.6 60th · 2nd on team 119.0 -0.009 PR R SR RSR
2013-04-26 Liberty Bell Invitational 400m 56.39 70th · 1st on team -0.009 SR

2012 TF 114.6

Pine Creek (CO) · Grade 9

Date Meet Event Result Place Rating Difficulty PR/SR Flags
2012-04-28 Liberty Bell Invitational 2012 400m 58.28 68th · 2nd on team -0.015
2012-04-21 Rock Canyon Jaguar Invitational 2012 400m 56.55 10th · 1st on team -0.003
2012-04-13 John Tate Challenge Cup 2012 400m 56.39 28th · 3rd on team -0.011 PR SR
2012-04-07 Palmer Terror Invitational 2012 400m 58.06 34th · 2nd on team -0.004 PR SR
2012-04-07 Palmer Terror Invitational 2012 200m 26.35 52nd · 3rd on team -0.004 ★PR SR
2012-03-24 Centennial Bulldog Invitational 2012 800m 2:14.04 19th · 2nd on team 114.6 -0.011 PR R SR RSR